sensor_id;sensor_type;location;lat;lon;timestamp;P1;durP1;ratioP1;P2;durP2;ratioP2
20709;SDS011;10516;51.518;9.864;2023-07-09T00:02:15;9.77;;;7.85;;
20709;SDS011;10516;51.518;9.864;2023-07-09T00:04:41;12.95;;;8.55;;
20709;SDS011;10516;51.518;9.864;2023-07-09T00:07:11;16.88;;;7.63;;
20709;SDS011;10516;51.518;9.864;2023-07-09T00:09:41;8.23;;;7.43;;
20709;SDS011;10516;51.518;9.864;2023-07-09T00:12:09;9.82;;;6.80;;
20709;SDS011;10516;51.518;9.864;2023-07-09T00:14:37;9.23;;;7.20;;
20709;SDS011;10516;51.518;9.864;2023-07-09T00:17:04;12.07;;;7.38;;
20709;SDS011;10516;51.518;9.864;2023-07-09T00:19:34;7.82;;;6.72;;
20709;SDS011;10516;51.518;9.864;2023-07-09T00:22:00;8.80;;;6.57;;
20709;SDS011;10516;51.518;9.864;2023-07-09T00:24:25;7.60;;;6.82;;
20709;SDS011;10516;51.518;9.864;2023-07-09T00:26:52;12.10;;;7.95;;
20709;SDS011;10516;51.518;9.864;2023-07-09T00:29:17;10.43;;;7.55;;
20709;SDS011;10516;51.518;9.864;2023-07-09T00:31:43;7.68;;;6.72;;
20709;SDS011;10516;51.518;9.864;2023-07-09T00:34:09;7.18;;;6.18;;
20709;SDS011;10516;51.518;9.864;2023-07-09T00:36:38;9.18;;;7.53;;
20709;SDS011;10516;51.518;9.864;2023-07-09T00:39:03;11.00;;;7.53;;
20709;SDS011;10516;51.518;9.864;2023-07-09T00:41:36;12.57;;;7.10;;
20709;SDS011;10516;51.518;9.864;2023-07-09T00:51:52;9.25;;;7.25;;
20709;SDS011;10516;51.518;9.864;2023-07-09T00:54:21;8.65;;;6.95;;
20709;SDS011;10516;51.518;9.864;2023-07-09T00:56:55;8.38;;;7.15;;
20709;SDS011;10516;51.518;9.864;2023-07-09T00:59:25;10.18;;;7.20;;
20709;SDS011;10516;51.518;9.864;2023-07-09T01:01:54;7.80;;;6.80;;
20709;SDS011;10516;51.518;9.864;2023-07-09T01:04:20;10.52;;;7.53;;
20709;SDS011;10516;51.518;9.864;2023-07-09T01:06:50;9.32;;;7.22;;
20709;SDS011;10516;51.518;9.864;2023-07-09T01:09:17;9.82;;;7.55;;
20709;SDS011;10516;51.518;9.864;2023-07-09T01:11:43;9.73;;;7.55;;
20709;SDS011;10516;51.518;9.864;2023-07-09T01:14:10;9.18;;;6.55;;
20709;SDS011;10516;51.518;9.864;2023-07-09T01:16:58;9.57;;;6.95;;
20709;SDS011;10516;51.518;9.864;2023-07-09T01:19:27;9.50;;;6.38;;
20709;SDS011;10516;51.518;9.864;2023-07-09T01:21:55;8.80;;;6.90;;
20709;SDS011;10516;51.518;9.864;2023-07-09T01:27:11;8.88;;;7.88;;
20709;SDS011;10516;51.518;9.864;2023-07-09T01:29:36;9.68;;;7.50;;
20709;SDS011;10516;51.518;9.864;2023-07-09T01:32:02;9.50;;;7.40;;
20709;SDS011;10516;51.518;9.864;2023-07-09T01:34:28;10.50;;;6.85;;
20709;SDS011;10516;51.518;9.864;2023-07-09T01:36:55;8.57;;;7.32;;
20709;SDS011;10516;51.518;9.864;2023-07-09T01:39:21;10.35;;;6.15;;
20709;SDS011;10516;51.518;9.864;2023-07-09T01:41:46;9.60;;;7.35;;
20709;SDS011;10516;51.518;9.864;2023-07-09T01:44:12;9.52;;;6.93;;
20709;SDS011;10516;51.518;9.864;2023-07-09T01:46:39;7.72;;;6.90;;
20709;SDS011;10516;51.518;9.864;2023-07-09T01:49:04;8.63;;;7.55;;
20709;SDS011;10516;51.518;9.864;2023-07-09T01:51:32;11.07;;;8.02;;
20709;SDS011;10516;51.518;9.864;2023-07-09T01:53:58;11.55;;;7.28;;
20709;SDS011;10516;51.518;9.864;2023-07-09T01:56:24;8.57;;;6.63;;
20709;SDS011;10516;51.518;9.864;2023-07-09T01:58:50;7.35;;;6.65;;
20709;SDS011;10516;51.518;9.864;2023-07-09T02:01:15;10.18;;;7.60;;
20709;SDS011;10516;51.518;9.864;2023-07-09T02:03:41;8.15;;;7.10;;
20709;SDS011;10516;51.518;9.864;2023-07-09T02:06:07;9.18;;;7.55;;
20709;SDS011;10516;51.518;9.864;2023-07-09T02:08:35;8.48;;;6.82;;
20709;SDS011;10516;51.518;9.864;2023-07-09T02:11:01;10.73;;;8.45;;
20709;SDS011;10516;51.518;9.864;2023-07-09T02:13:27;8.75;;;7.65;;
20709;SDS011;10516;51.518;9.864;2023-07-09T02:15:52;9.43;;;7.35;;
20709;SDS011;10516;51.518;9.864;2023-07-09T02:18:17;8.68;;;7.40;;
20709;SDS011;10516;51.518;9.864;2023-07-09T02:20:45;10.45;;;7.93;;
20709;SDS011;10516;51.518;9.864;2023-07-09T02:23:11;13.32;;;7.53;;
20709;SDS011;10516;51.518;9.864;2023-07-09T02:25:36;12.15;;;7.03;;
20709;SDS011;10516;51.518;9.864;2023-07-09T02:28:02;9.23;;;6.80;;
20709;SDS011;10516;51.518;9.864;2023-07-09T02:30:28;8.05;;;6.93;;
20709;SDS011;10516;51.518;9.864;2023-07-09T02:32:53;10.40;;;7.88;;
20709;SDS011;10516;51.518;9.864;2023-07-09T02:35:20;8.88;;;7.70;;
20709;SDS011;10516;51.518;9.864;2023-07-09T02:37:45;11.80;;;7.55;;
20709;SDS011;10516;51.518;9.864;2023-07-09T02:40:11;9.57;;;7.47;;
20709;SDS011;10516;51.518;9.864;2023-07-09T02:42:37;8.70;;;7.47;;
20709;SDS011;10516;51.518;9.864;2023-07-09T02:45:03;10.38;;;8.07;;
20709;SDS011;10516;51.518;9.864;2023-07-09T02:47:29;8.90;;;7.72;;
20709;SDS011;10516;51.518;9.864;2023-07-09T02:49:54;11.32;;;7.93;;
20709;SDS011;10516;51.518;9.864;2023-07-09T02:52:20;9.10;;;7.40;;
20709;SDS011;10516;51.518;9.864;2023-07-09T02:54:45;11.32;;;7.75;;
20709;SDS011;10516;51.518;9.864;2023-07-09T02:57:11;8.82;;;7.35;;
20709;SDS011;10516;51.518;9.864;2023-07-09T02:59:36;8.50;;;7.45;;
20709;SDS011;10516;51.518;9.864;2023-07-09T03:02:02;13.77;;;8.23;;
20709;SDS011;10516;51.518;9.864;2023-07-09T03:04:28;9.82;;;7.28;;
20709;SDS011;10516;51.518;9.864;2023-07-09T03:06:53;9.15;;;7.63;;
20709;SDS011;10516;51.518;9.864;2023-07-09T03:09:19;10.70;;;8.18;;
20709;SDS011;10516;51.518;9.864;2023-07-09T03:11:45;9.63;;;7.57;;
20709;SDS011;10516;51.518;9.864;2023-07-09T03:14:10;10.75;;;7.97;;
20709;SDS011;10516;51.518;9.864;2023-07-09T03:16:36;10.60;;;7.78;;
20709;SDS011;10516;51.518;9.864;2023-07-09T03:19:02;13.40;;;8.18;;
20709;SDS011;10516;51.518;9.864;2023-07-09T03:21:29;10.18;;;7.55;;
20709;SDS011;10516;51.518;9.864;2023-07-09T03:23:55;8.73;;;7.82;;
20709;SDS011;10516;51.518;9.864;2023-07-09T03:26:21;8.15;;;7.30;;
20709;SDS011;10516;51.518;9.864;2023-07-09T03:28:46;9.95;;;7.75;;
20709;SDS011;10516;51.518;9.864;2023-07-09T03:31:12;10.38;;;7.65;;
20709;SDS011;10516;51.518;9.864;2023-07-09T03:33:37;12.20;;;8.00;;
20709;SDS011;10516;51.518;9.864;2023-07-09T03:36:03;10.20;;;7.60;;
20709;SDS011;10516;51.518;9.864;2023-07-09T03:38:29;9.63;;;7.28;;
20709;SDS011;10516;51.518;9.864;2023-07-09T03:40:56;10.73;;;8.75;;
20709;SDS011;10516;51.518;9.864;2023-07-09T03:43:22;11.90;;;8.30;;
20709;SDS011;10516;51.518;9.864;2023-07-09T03:45:48;13.93;;;7.60;;
20709;SDS011;10516;51.518;9.864;2023-07-09T03:48:14;9.85;;;8.38;;
20709;SDS011;10516;51.518;9.864;2023-07-09T03:50:41;10.00;;;8.13;;
20709;SDS011;10516;51.518;9.864;2023-07-09T03:53:08;9.32;;;8.05;;
20709;SDS011;10516;51.518;9.864;2023-07-09T03:55:34;9.93;;;8.07;;
20709;SDS011;10516;51.518;9.864;2023-07-09T03:57:59;9.23;;;7.82;;
20709;SDS011;10516;51.518;9.864;2023-07-09T04:00:25;10.70;;;7.55;;
20709;SDS011;10516;51.518;9.864;2023-07-09T04:02:51;16.27;;;7.95;;
20709;SDS011;10516;51.518;9.864;2023-07-09T04:05:17;8.63;;;7.57;;
20709;SDS011;10516;51.518;9.864;2023-07-09T04:07:43;12.13;;;8.68;;
20709;SDS011;10516;51.518;9.864;2023-07-09T04:10:09;10.75;;;8.80;;
20709;SDS011;10516;51.518;9.864;2023-07-09T04:12:35;10.27;;;7.60;;
20709;SDS011;10516;51.518;9.864;2023-07-09T04:15:02;11.60;;;7.68;;
20709;SDS011;10516;51.518;9.864;2023-07-09T04:17:28;9.32;;;7.47;;
20709;SDS011;10516;51.518;9.864;2023-07-09T04:19:54;10.07;;;8.23;;
20709;SDS011;10516;51.518;9.864;2023-07-09T04:22:19;8.63;;;7.57;;
20709;SDS011;10516;51.518;9.864;2023-07-09T04:24:45;14.32;;;8.05;;
20709;SDS011;10516;51.518;9.864;2023-07-09T04:27:11;11.20;;;8.63;;
20709;SDS011;10516;51.518;9.864;2023-07-09T04:29:38;13.38;;;8.18;;
20709;SDS011;10516;51.518;9.864;2023-07-09T04:32:05;12.88;;;9.27;;
20709;SDS011;10516;51.518;9.864;2023-07-09T04:34:31;9.50;;;7.72;;
20709;SDS011;10516;51.518;9.864;2023-07-09T04:36:57;11.88;;;7.68;;
20709;SDS011;10516;51.518;9.864;2023-07-09T04:39:22;11.60;;;7.07;;
20709;SDS011;10516;51.518;9.864;2023-07-09T04:41:48;12.27;;;8.55;;
20709;SDS011;10516;51.518;9.864;2023-07-09T04:44:13;17.67;;;9.35;;
20709;SDS011;10516;51.518;9.864;2023-07-09T04:46:39;9.55;;;8.25;;
20709;SDS011;10516;51.518;9.864;2023-07-09T04:49:04;12.15;;;8.35;;
20709;SDS011;10516;51.518;9.864;2023-07-09T04:51:29;11.80;;;8.80;;
20709;SDS011;10516;51.518;9.864;2023-07-09T04:53:55;16.35;;;9.52;;
20709;SDS011;10516;51.518;9.864;2023-07-09T04:56:20;15.43;;;10.07;;
20709;SDS011;10516;51.518;9.864;2023-07-09T04:58:46;16.13;;;10.02;;
20709;SDS011;10516;51.518;9.864;2023-07-09T05:01:11;10.60;;;9.50;;
20709;SDS011;10516;51.518;9.864;2023-07-09T05:03:36;12.25;;;9.98;;
20709;SDS011;10516;51.518;9.864;2023-07-09T05:06:03;14.65;;;9.93;;
20709;SDS011;10516;51.518;9.864;2023-07-09T05:08:29;12.88;;;11.23;;
20709;SDS011;10516;51.518;9.864;2023-07-09T05:10:55;12.07;;;10.13;;
20709;SDS011;10516;51.518;9.864;2023-07-09T05:13:23;14.77;;;10.55;;
20709;SDS011;10516;51.518;9.864;2023-07-09T05:15:49;12.80;;;10.18;;
20709;SDS011;10516;51.518;9.864;2023-07-09T05:18:15;11.40;;;9.95;;
20709;SDS011;10516;51.518;9.864;2023-07-09T05:20:41;13.88;;;10.75;;
20709;SDS011;10516;51.518;9.864;2023-07-09T05:23:08;14.82;;;11.10;;
20709;SDS011;10516;51.518;9.864;2023-07-09T05:25:34;10.88;;;8.80;;
20709;SDS011;10516;51.518;9.864;2023-07-09T05:27:59;14.98;;;10.07;;
20709;SDS011;10516;51.518;9.864;2023-07-09T05:30:25;13.23;;;9.68;;
20709;SDS011;10516;51.518;9.864;2023-07-09T05:32:51;16.70;;;10.30;;
20709;SDS011;10516;51.518;9.864;2023-07-09T05:35:18;20.10;;;10.90;;
20709;SDS011;10516;51.518;9.864;2023-07-09T05:37:44;14.75;;;10.25;;
20709;SDS011;10516;51.518;9.864;2023-07-09T05:40:10;13.27;;;11.18;;
20709;SDS011;10516;51.518;9.864;2023-07-09T05:42:36;14.43;;;10.52;;
20709;SDS011;10516;51.518;9.864;2023-07-09T05:45:02;13.15;;;10.45;;
20709;SDS011;10516;51.518;9.864;2023-07-09T05:47:28;14.23;;;10.32;;
20709;SDS011;10516;51.518;9.864;2023-07-09T05:49:53;22.35;;;10.40;;
20709;SDS011;10516;51.518;9.864;2023-07-09T05:52:20;11.88;;;10.18;;
20709;SDS011;10516;51.518;9.864;2023-07-09T05:54:50;16.50;;;10.60;;
20709;SDS011;10516;51.518;9.864;2023-07-09T05:57:17;13.75;;;9.48;;
20709;SDS011;10516;51.518;9.864;2023-07-09T05:59:43;14.48;;;9.95;;
20709;SDS011;10516;51.518;9.864;2023-07-09T06:02:12;12.40;;;9.23;;
20709;SDS011;10516;51.518;9.864;2023-07-09T06:04:39;16.55;;;10.75;;
20709;SDS011;10516;51.518;9.864;2023-07-09T06:07:05;12.65;;;10.18;;
20709;SDS011;10516;51.518;9.864;2023-07-09T06:09:30;13.48;;;9.88;;
20709;SDS011;10516;51.518;9.864;2023-07-09T06:11:56;16.25;;;9.80;;
20709;SDS011;10516;51.518;9.864;2023-07-09T06:14:22;11.10;;;9.60;;
20709;SDS011;10516;51.518;9.864;2023-07-09T06:16:48;12.80;;;9.35;;
20709;SDS011;10516;51.518;9.864;2023-07-09T06:19:14;11.45;;;8.43;;
20709;SDS011;10516;51.518;9.864;2023-07-09T06:21:39;12.20;;;8.40;;
20709;SDS011;10516;51.518;9.864;2023-07-09T06:24:05;11.63;;;9.13;;
20709;SDS011;10516;51.518;9.864;2023-07-09T06:26:32;11.07;;;7.85;;
20709;SDS011;10516;51.518;9.864;2023-07-09T06:28:57;21.60;;;8.77;;
20709;SDS011;10516;51.518;9.864;2023-07-09T06:31:23;11.63;;;8.27;;
20709;SDS011;10516;51.518;9.864;2023-07-09T06:33:49;12.27;;;8.77;;
20709;SDS011;10516;51.518;9.864;2023-07-09T06:36:16;14.68;;;8.57;;
20709;SDS011;10516;51.518;9.864;2023-07-09T06:38:42;9.77;;;8.70;;
20709;SDS011;10516;51.518;9.864;2023-07-09T06:41:08;11.05;;;8.30;;
20709;SDS011;10516;51.518;9.864;2023-07-09T06:43:34;13.45;;;8.15;;
20709;SDS011;10516;51.518;9.864;2023-07-09T06:46:00;11.82;;;8.93;;
20709;SDS011;10516;51.518;9.864;2023-07-09T06:48:26;12.15;;;8.82;;
20709;SDS011;10516;51.518;9.864;2023-07-09T06:50:54;9.30;;;7.68;;
20709;SDS011;10516;51.518;9.864;2023-07-09T06:53:21;13.05;;;8.32;;
20709;SDS011;10516;51.518;9.864;2023-07-09T06:55:47;9.55;;;8.10;;
20709;SDS011;10516;51.518;9.864;2023-07-09T06:58:14;13.23;;;8.73;;
20709;SDS011;10516;51.518;9.864;2023-07-09T07:00:41;14.30;;;8.68;;
20709;SDS011;10516;51.518;9.864;2023-07-09T07:03:06;12.13;;;8.63;;
20709;SDS011;10516;51.518;9.864;2023-07-09T07:05:32;12.73;;;8.60;;
20709;SDS011;10516;51.518;9.864;2023-07-09T07:07:58;11.20;;;7.80;;
20709;SDS011;10516;51.518;9.864;2023-07-09T07:10:24;9.95;;;7.97;;
20709;SDS011;10516;51.518;9.864;2023-07-09T07:12:49;10.27;;;8.02;;
20709;SDS011;10516;51.518;9.864;2023-07-09T07:15:15;15.32;;;9.07;;
20709;SDS011;10516;51.518;9.864;2023-07-09T07:17:42;10.32;;;8.20;;
20709;SDS011;10516;51.518;9.864;2023-07-09T07:20:09;9.50;;;8.38;;
20709;SDS011;10516;51.518;9.864;2023-07-09T07:22:36;10.60;;;8.20;;
20709;SDS011;10516;51.518;9.864;2023-07-09T07:25:02;11.05;;;8.30;;
20709;SDS011;10516;51.518;9.864;2023-07-09T07:27:28;11.40;;;8.18;;
20709;SDS011;10516;51.518;9.864;2023-07-09T07:29:53;9.60;;;8.43;;
20709;SDS011;10516;51.518;9.864;2023-07-09T07:32:19;9.68;;;8.32;;
20709;SDS011;10516;51.518;9.864;2023-07-09T07:34:46;10.15;;;8.38;;
20709;SDS011;10516;51.518;9.864;2023-07-09T07:37:12;9.63;;;8.00;;
20709;SDS011;10516;51.518;9.864;2023-07-09T07:39:38;10.82;;;7.63;;
20709;SDS011;10516;51.518;9.864;2023-07-09T07:42:03;10.90;;;8.18;;
20709;SDS011;10516;51.518;9.864;2023-07-09T07:44:29;11.20;;;8.20;;
20709;SDS011;10516;51.518;9.864;2023-07-09T07:46:54;12.35;;;8.23;;
20709;SDS011;10516;51.518;9.864;2023-07-09T07:49:19;12.90;;;9.10;;
20709;SDS011;10516;51.518;9.864;2023-07-09T07:51:48;9.45;;;7.78;;
20709;SDS011;10516;51.518;9.864;2023-07-09T07:54:16;12.35;;;8.15;;
20709;SDS011;10516;51.518;9.864;2023-07-09T07:56:45;11.55;;;8.95;;
20709;SDS011;10516;51.518;9.864;2023-07-09T07:59:10;9.13;;;7.85;;
20709;SDS011;10516;51.518;9.864;2023-07-09T08:01:35;11.98;;;8.85;;
20709;SDS011;10516;51.518;9.864;2023-07-09T08:04:04;10.15;;;8.85;;
20709;SDS011;10516;51.518;9.864;2023-07-09T08:06:30;11.07;;;7.90;;
20709;SDS011;10516;51.518;9.864;2023-07-09T08:08:56;13.65;;;9.02;;
20709;SDS011;10516;51.518;9.864;2023-07-09T08:11:22;10.40;;;8.10;;
20709;SDS011;10516;51.518;9.864;2023-07-09T08:13:49;9.43;;;8.02;;
20709;SDS011;10516;51.518;9.864;2023-07-09T08:16:15;9.65;;;8.18;;
20709;SDS011;10516;51.518;9.864;2023-07-09T08:18:43;11.73;;;9.23;;
20709;SDS011;10516;51.518;9.864;2023-07-09T08:21:09;10.90;;;8.70;;
20709;SDS011;10516;51.518;9.864;2023-07-09T08:23:34;13.40;;;8.65;;
20709;SDS011;10516;51.518;9.864;2023-07-09T08:26:00;8.90;;;6.32;;
20709;SDS011;10516;51.518;9.864;2023-07-09T08:28:28;8.15;;;7.38;;
20709;SDS011;10516;51.518;9.864;2023-07-09T08:30:54;8.55;;;7.75;;
20709;SDS011;10516;51.518;9.864;2023-07-09T08:33:20;12.43;;;8.50;;
20709;SDS011;10516;51.518;9.864;2023-07-09T08:35:48;11.25;;;9.02;;
20709;SDS011;10516;51.518;9.864;2023-07-09T08:38:14;8.85;;;7.57;;
20709;SDS011;10516;51.518;9.864;2023-07-09T08:40:40;9.60;;;8.57;;
20709;SDS011;10516;51.518;9.864;2023-07-09T08:43:15;10.07;;;8.00;;
20709;SDS011;10516;51.518;9.864;2023-07-09T08:45:50;10.95;;;9.15;;
20709;SDS011;10516;51.518;9.864;2023-07-09T08:48:33;16.67;;;8.35;;
20709;SDS011;10516;51.518;9.864;2023-07-09T08:51:04;11.68;;;8.48;;
20709;SDS011;10516;51.518;9.864;2023-07-09T08:53:57;12.15;;;8.25;;
20709;SDS011;10516;51.518;9.864;2023-07-09T08:56:24;9.30;;;7.88;;
20709;SDS011;10516;51.518;9.864;2023-07-09T08:58:52;13.65;;;8.85;;
20709;SDS011;10516;51.518;9.864;2023-07-09T09:01:20;10.23;;;8.18;;
20709;SDS011;10516;51.518;9.864;2023-07-09T09:04:03;10.07;;;8.40;;
20709;SDS011;10516;51.518;9.864;2023-07-09T09:06:39;10.13;;;9.05;;
20709;SDS011;10516;51.518;9.864;2023-07-09T09:14:42;8.52;;;7.70;;
20709;SDS011;10516;51.518;9.864;2023-07-09T09:17:23;17.35;;;8.57;;
20709;SDS011;10516;51.518;9.864;2023-07-09T09:22:22;8.98;;;8.07;;
20709;SDS011;10516;51.518;9.864;2023-07-09T09:25:02;12.70;;;8.18;;
20709;SDS011;10516;51.518;9.864;2023-07-09T09:27:29;11.00;;;8.82;;
20709;SDS011;10516;51.518;9.864;2023-07-09T09:29:55;9.27;;;8.38;;
20709;SDS011;10516;51.518;9.864;2023-07-09T09:32:27;9.68;;;8.18;;
20709;SDS011;10516;51.518;9.864;2023-07-09T09:34:54;9.55;;;8.00;;
20709;SDS011;10516;51.518;9.864;2023-07-09T09:37:25;9.85;;;8.60;;
20709;SDS011;10516;51.518;9.864;2023-07-09T09:39:53;9.30;;;7.45;;
20709;SDS011;10516;51.518;9.864;2023-07-09T09:42:19;9.93;;;8.48;;
20709;SDS011;10516;51.518;9.864;2023-07-09T09:44:44;8.40;;;7.45;;
20709;SDS011;10516;51.518;9.864;2023-07-09T09:47:11;11.65;;;9.00;;
20709;SDS011;10516;51.518;9.864;2023-07-09T09:49:38;11.63;;;9.13;;
20709;SDS011;10516;51.518;9.864;2023-07-09T09:52:06;9.23;;;7.97;;
20709;SDS011;10516;51.518;9.864;2023-07-09T09:54:39;12.48;;;9.35;;
20709;SDS011;10516;51.518;9.864;2023-07-09T10:00:00;13.32;;;8.43;;
20709;SDS011;10516;51.518;9.864;2023-07-09T10:02:26;10.57;;;8.98;;
20709;SDS011;10516;51.518;9.864;2023-07-09T10:04:51;15.38;;;9.32;;
20709;SDS011;10516;51.518;9.864;2023-07-09T10:07:34;9.07;;;8.05;;
20709;SDS011;10516;51.518;9.864;2023-07-09T10:10:15;13.43;;;8.82;;
20709;SDS011;10516;51.518;9.864;2023-07-09T10:12:57;12.25;;;8.50;;
20709;SDS011;10516;51.518;9.864;2023-07-09T10:15:40;14.07;;;8.82;;
20709;SDS011;10516;51.518;9.864;2023-07-09T10:20:38;12.68;;;8.57;;
20709;SDS011;10516;51.518;9.864;2023-07-09T10:23:13;10.67;;;8.53;;
20709;SDS011;10516;51.518;9.864;2023-07-09T10:26:01;8.93;;;7.05;;
20709;SDS011;10516;51.518;9.864;2023-07-09T10:31:58;10.02;;;8.57;;
20709;SDS011;10516;51.518;9.864;2023-07-09T10:34:38;18.83;;;9.32;;
20709;SDS011;10516;51.518;9.864;2023-07-09T10:37:29;16.38;;;8.55;;
20709;SDS011;10516;51.518;9.864;2023-07-09T10:40:12;11.25;;;8.00;;
20709;SDS011;10516;51.518;9.864;2023-07-09T10:45:12;14.82;;;8.02;;
20709;SDS011;10516;51.518;9.864;2023-07-09T10:47:41;13.82;;;8.48;;
20709;SDS011;10516;51.518;9.864;2023-07-09T10:50:12;9.65;;;7.55;;
20709;SDS011;10516;51.518;9.864;2023-07-09T10:52:45;10.87;;;8.10;;
20709;SDS011;10516;51.518;9.864;2023-07-09T10:55:17;12.07;;;8.30;;
20709;SDS011;10516;51.518;9.864;2023-07-09T10:57:54;8.85;;;7.53;;
20709;SDS011;10516;51.518;9.864;2023-07-09T11:00:27;11.00;;;8.77;;
20709;SDS011;10516;51.518;9.864;2023-07-09T11:03:01;8.00;;;7.22;;
20709;SDS011;10516;51.518;9.864;2023-07-09T11:05:41;11.35;;;7.90;;
20709;SDS011;10516;51.518;9.864;2023-07-09T11:08:13;15.30;;;8.98;;
20709;SDS011;10516;51.518;9.864;2023-07-09T11:10:48;16.40;;;8.63;;
20709;SDS011;10516;51.518;9.864;2023-07-09T11:13:22;9.52;;;7.85;;
20709;SDS011;10516;51.518;9.864;2023-07-09T11:15:51;11.82;;;8.10;;
20709;SDS011;10516;51.518;9.864;2023-07-09T11:18:25;11.20;;;8.77;;
20709;SDS011;10516;51.518;9.864;2023-07-09T11:23:26;15.38;;;8.98;;
20709;SDS011;10516;51.518;9.864;2023-07-09T11:28:47;11.10;;;8.90;;
20709;SDS011;10516;51.518;9.864;2023-07-09T11:31:18;13.25;;;8.48;;
20709;SDS011;10516;51.518;9.864;2023-07-09T11:33:56;14.20;;;8.35;;
20709;SDS011;10516;51.518;9.864;2023-07-09T11:36:27;9.48;;;8.20;;
20709;SDS011;10516;51.518;9.864;2023-07-09T11:38:54;11.70;;;9.32;;
20709;SDS011;10516;51.518;9.864;2023-07-09T11:44:30;10.70;;;8.75;;
20709;SDS011;10516;51.518;9.864;2023-07-09T11:52:28;15.30;;;9.43;;
20709;SDS011;10516;51.518;9.864;2023-07-09T11:55:01;10.93;;;8.15;;
20709;SDS011;10516;51.518;9.864;2023-07-09T11:57:52;13.27;;;8.88;;
20709;SDS011;10516;51.518;9.864;2023-07-09T12:00:21;9.65;;;8.65;;
20709;SDS011;10516;51.518;9.864;2023-07-09T12:02:47;11.48;;;7.97;;
20709;SDS011;10516;51.518;9.864;2023-07-09T12:05:15;10.00;;;8.65;;
20709;SDS011;10516;51.518;9.864;2023-07-09T12:07:45;11.30;;;8.50;;
20709;SDS011;10516;51.518;9.864;2023-07-09T12:10:16;12.20;;;9.23;;
20709;SDS011;10516;51.518;9.864;2023-07-09T12:12:44;8.98;;;8.07;;
20709;SDS011;10516;51.518;9.864;2023-07-09T12:15:21;10.57;;;8.85;;
20709;SDS011;10516;51.518;9.864;2023-07-09T12:18:23;11.63;;;8.55;;
20709;SDS011;10516;51.518;9.864;2023-07-09T12:20:41;11.48;;;8.38;;
20709;SDS011;10516;51.518;9.864;2023-07-09T12:23:21;10.00;;;8.13;;
20709;SDS011;10516;51.518;9.864;2023-07-09T12:25:52;10.77;;;8.27;;
20709;SDS011;10516;51.518;9.864;2023-07-09T12:28:19;13.05;;;8.30;;
20709;SDS011;10516;51.518;9.864;2023-07-09T12:30:49;11.05;;;9.00;;
20709;SDS011;10516;51.518;9.864;2023-07-09T12:33:17;13.52;;;8.50;;
20709;SDS011;10516;51.518;9.864;2023-07-09T12:35:45;10.15;;;8.32;;
20709;SDS011;10516;51.518;9.864;2023-07-09T12:38:18;10.75;;;7.97;;
20709;SDS011;10516;51.518;9.864;2023-07-09T12:40:48;13.27;;;8.25;;
20709;SDS011;10516;51.518;9.864;2023-07-09T12:43:15;10.35;;;8.70;;
20709;SDS011;10516;51.518;9.864;2023-07-09T12:45:44;10.20;;;7.82;;
20709;SDS011;10516;51.518;9.864;2023-07-09T12:48:10;9.90;;;7.88;;
20709;SDS011;10516;51.518;9.864;2023-07-09T12:50:38;11.15;;;8.10;;
20709;SDS011;10516;51.518;9.864;2023-07-09T12:53:14;11.80;;;8.00;;
20709;SDS011;10516;51.518;9.864;2023-07-09T12:55:42;8.57;;;7.53;;
20709;SDS011;10516;51.518;9.864;2023-07-09T12:58:11;11.25;;;7.35;;
20709;SDS011;10516;51.518;9.864;2023-07-09T13:00:47;13.95;;;7.97;;
20709;SDS011;10516;51.518;9.864;2023-07-09T13:03:21;12.05;;;6.35;;
20709;SDS011;10516;51.518;9.864;2023-07-09T13:05:56;8.85;;;7.15;;
20709;SDS011;10516;51.518;9.864;2023-07-09T13:08:28;11.15;;;8.10;;
20709;SDS011;10516;51.518;9.864;2023-07-09T13:10:56;13.82;;;8.23;;
20709;SDS011;10516;51.518;9.864;2023-07-09T13:13:22;9.90;;;7.13;;
20709;SDS011;10516;51.518;9.864;2023-07-09T13:15:51;9.10;;;7.45;;
20709;SDS011;10516;51.518;9.864;2023-07-09T13:18:22;12.30;;;7.32;;
20709;SDS011;10516;51.518;9.864;2023-07-09T13:20:49;9.52;;;7.68;;
20709;SDS011;10516;51.518;9.864;2023-07-09T13:23:20;11.32;;;7.25;;
20709;SDS011;10516;51.518;9.864;2023-07-09T13:25:52;15.90;;;8.30;;
20709;SDS011;10516;51.518;9.864;2023-07-09T13:28:20;10.82;;;7.97;;
20709;SDS011;10516;51.518;9.864;2023-07-09T13:30:51;11.40;;;7.47;;
20709;SDS011;10516;51.518;9.864;2023-07-09T13:33:18;11.45;;;7.80;;
20709;SDS011;10516;51.518;9.864;2023-07-09T13:35:45;10.23;;;7.65;;
20709;SDS011;10516;51.518;9.864;2023-07-09T13:38:12;9.50;;;7.40;;
20709;SDS011;10516;51.518;9.864;2023-07-09T13:40:46;8.95;;;6.88;;
20709;SDS011;10516;51.518;9.864;2023-07-09T13:43:15;10.25;;;6.30;;
20709;SDS011;10516;51.518;9.864;2023-07-09T13:45:45;10.82;;;7.72;;
20709;SDS011;10516;51.518;9.864;2023-07-09T13:48:14;9.98;;;6.85;;
20709;SDS011;10516;51.518;9.864;2023-07-09T13:50:42;9.40;;;7.35;;
20709;SDS011;10516;51.518;9.864;2023-07-09T13:53:11;9.20;;;6.60;;
20709;SDS011;10516;51.518;9.864;2023-07-09T13:55:40;11.18;;;7.50;;
20709;SDS011;10516;51.518;9.864;2023-07-09T13:58:08;11.23;;;6.88;;
20709;SDS011;10516;51.518;9.864;2023-07-09T14:00:35;8.65;;;7.18;;
20709;SDS011;10516;51.518;9.864;2023-07-09T14:03:00;11.95;;;7.65;;
20709;SDS011;10516;51.518;9.864;2023-07-09T14:05:26;9.75;;;6.97;;
20709;SDS011;10516;51.518;9.864;2023-07-09T14:07:53;8.52;;;6.95;;
20709;SDS011;10516;51.518;9.864;2023-07-09T14:10:18;11.93;;;7.93;;
20709;SDS011;10516;51.518;9.864;2023-07-09T14:12:44;7.65;;;6.88;;
20709;SDS011;10516;51.518;9.864;2023-07-09T14:15:12;12.02;;;8.15;;
20709;SDS011;10516;51.518;9.864;2023-07-09T14:17:42;10.60;;;7.65;;
20709;SDS011;10516;51.518;9.864;2023-07-09T14:20:10;8.23;;;7.43;;
20709;SDS011;10516;51.518;9.864;2023-07-09T14:22:37;16.23;;;7.68;;
20709;SDS011;10516;51.518;9.864;2023-07-09T14:25:04;9.10;;;7.38;;
20709;SDS011;10516;51.518;9.864;2023-07-09T14:27:30;11.35;;;7.72;;
20709;SDS011;10516;51.518;9.864;2023-07-09T14:29:56;10.48;;;7.15;;
20709;SDS011;10516;51.518;9.864;2023-07-09T14:35:09;12.63;;;8.07;;
20709;SDS011;10516;51.518;9.864;2023-07-09T14:37:40;9.80;;;7.43;;
20709;SDS011;10516;51.518;9.864;2023-07-09T14:40:06;14.00;;;7.93;;
20709;SDS011;10516;51.518;9.864;2023-07-09T14:42:32;10.65;;;7.95;;
20709;SDS011;10516;51.518;9.864;2023-07-09T14:44:57;12.55;;;8.55;;
20709;SDS011;10516;51.518;9.864;2023-07-09T14:47:23;9.52;;;7.93;;
20709;SDS011;10516;51.518;9.864;2023-07-09T14:49:49;12.75;;;8.15;;
20709;SDS011;10516;51.518;9.864;2023-07-09T14:52:17;10.52;;;7.82;;
20709;SDS011;10516;51.518;9.864;2023-07-09T14:54:44;10.07;;;6.80;;
20709;SDS011;10516;51.518;9.864;2023-07-09T14:57:22;9.85;;;7.50;;
20709;SDS011;10516;51.518;9.864;2023-07-09T14:59:51;13.40;;;7.35;;
20709;SDS011;10516;51.518;9.864;2023-07-09T15:02:22;8.15;;;7.32;;
20709;SDS011;10516;51.518;9.864;2023-07-09T15:05:05;10.90;;;7.50;;
20709;SDS011;10516;51.518;9.864;2023-07-09T15:07:36;8.65;;;7.28;;
20709;SDS011;10516;51.518;9.864;2023-07-09T15:10:01;11.65;;;7.70;;
20709;SDS011;10516;51.518;9.864;2023-07-09T15:12:30;12.63;;;8.35;;
20709;SDS011;10516;51.518;9.864;2023-07-09T15:15:00;12.02;;;7.47;;
20709;SDS011;10516;51.518;9.864;2023-07-09T15:17:45;13.15;;;7.88;;
20709;SDS011;10516;51.518;9.864;2023-07-09T15:20:14;14.63;;;7.43;;
20709;SDS011;10516;51.518;9.864;2023-07-09T15:22:41;10.00;;;7.72;;
20709;SDS011;10516;51.518;9.864;2023-07-09T15:25:11;11.68;;;7.20;;
20709;SDS011;10516;51.518;9.864;2023-07-09T15:27:38;8.80;;;7.80;;
20709;SDS011;10516;51.518;9.864;2023-07-09T15:30:14;11.30;;;7.15;;
20709;SDS011;10516;51.518;9.864;2023-07-09T15:32:44;13.43;;;7.78;;